sensor_id;sensor_type;location;lat;lon;timestamp;pressure;altitude;pressure_sealevel;temperature;humidity
21803;BME280;18591;47.080;22.214;2023-02-16T00:01:28;101015.97;;;4.25;57.09
21803;BME280;18591;47.080;22.214;2023-02-16T00:03:31;101013.22;;;4.17;57.01
21803;BME280;18591;47.080;22.214;2023-02-16T00:05:33;101016.78;;;4.18;56.56
21803;BME280;18591;47.080;22.214;2023-02-16T00:07:36;101018.53;;;4.15;56.59
21803;BME280;18591;47.080;22.214;2023-02-16T00:09:38;101022.09;;;4.18;56.96
21803;BME280;18591;47.080;22.214;2023-02-16T00:11:40;101016.75;;;4.16;56.61
21803;BME280;18591;47.080;22.214;2023-02-16T00:14:02;101021.13;;;4.09;56.87
21803;BME280;18591;47.080;22.214;2023-02-16T00:16:12;101019.16;;;3.95;57.55
21803;BME280;18591;47.080;22.214;2023-02-16T00:18:20;101028.06;;;3.97;57.79
21803;BME280;18591;47.080;22.214;2023-02-16T00:20:22;101012.19;;;4.06;56.87
21803;BME280;18591;47.080;22.214;2023-02-16T00:22:24;101024.53;;;4.01;57.52
21803;BME280;18591;47.080;22.214;2023-02-16T00:24:28;101021.88;;;4.01;57.55
21803;BME280;18591;47.080;22.214;2023-02-16T00:26:32;101015.66;;;3.97;57.88
21803;BME280;18591;47.080;22.214;2023-02-16T00:28:35;101009.47;;;4.00;57.78
21803;BME280;18591;47.080;22.214;2023-02-16T00:30:40;101011.25;;;3.99;57.69
21803;BME280;18591;47.080;22.214;2023-02-16T00:32:42;101022.69;;;3.93;58.45
21803;BME280;18591;47.080;22.214;2023-02-16T00:34:45;101018.28;;;3.96;57.88
21803;BME280;18591;47.080;22.214;2023-02-16T00:36:46;101017.41;;;3.98;57.50
21803;BME280;18591;47.080;22.214;2023-02-16T00:38:49;101015.72;;;4.03;57.41
21803;BME280;18591;47.080;22.214;2023-02-16T00:40:51;101017.44;;;4.00;57.51
21803;BME280;18591;47.080;22.214;2023-02-16T00:42:53;101014.75;;;3.98;58.04
21803;BME280;18591;47.080;22.214;2023-02-16T00:44:58;101008.56;;;3.98;57.57
21803;BME280;18591;47.080;22.214;2023-02-16T00:47:16;101011.19;;;3.93;58.04
21803;BME280;18591;47.080;22.214;2023-02-16T00:49:22;101005.91;;;3.98;57.32
21803;BME280;18591;47.080;22.214;2023-02-16T00:51:24;101007.59;;;3.91;57.97
21803;BME280;18591;47.080;22.214;2023-02-16T00:53:27;101007.56;;;3.89;58.31
21803;BME280;18591;47.080;22.214;2023-02-16T00:55:33;101004.03;;;3.89;57.68
21803;BME280;18591;47.080;22.214;2023-02-16T00:57:49;101004.00;;;3.86;58.66
21803;BME280;18591;47.080;22.214;2023-02-16T01:00:12;101003.06;;;3.84;58.52
21803;BME280;18591;47.080;22.214;2023-02-16T01:02:15;100998.75;;;3.90;57.86
21803;BME280;18591;47.080;22.214;2023-02-16T01:04:22;100997.81;;;3.88;58.30
21803;BME280;18591;47.080;22.214;2023-02-16T01:06:24;101009.38;;;3.92;57.94
21803;BME280;18591;47.080;22.214;2023-02-16T01:08:45;101000.50;;;3.91;57.53
21803;BME280;18591;47.080;22.214;2023-02-16T01:11:07;100988.94;;;3.86;57.97
21803;BME280;18591;47.080;22.214;2023-02-16T01:13:14;100993.34;;;3.86;58.31
21803;BME280;18591;47.080;22.214;2023-02-16T01:15:18;100992.53;;;3.91;57.78
21803;BME280;18591;47.080;22.214;2023-02-16T01:17:23;100989.09;;;4.00;57.08
21803;BME280;18591;47.080;22.214;2023-02-16T01:19:28;100990.88;;;4.01;57.32
21803;BME280;18591;47.080;22.214;2023-02-16T01:21:30;100989.94;;;3.98;57.09
21803;BME280;18591;47.080;22.214;2023-02-16T01:23:36;100990.03;;;4.04;56.85
21803;BME280;18591;47.080;22.214;2023-02-16T01:25:39;100977.47;;;3.92;57.35
21803;BME280;18591;47.080;22.214;2023-02-16T01:27:42;100984.56;;;3.91;57.24
21803;BME280;18591;47.080;22.214;2023-02-16T01:29:47;100985.53;;;4.00;56.88
21803;BME280;18591;47.080;22.214;2023-02-16T01:31:49;100987.34;;;4.02;56.58
21803;BME280;18591;47.080;22.214;2023-02-16T01:33:52;100977.59;;;4.01;56.64
21803;BME280;18591;47.080;22.214;2023-02-16T01:35:55;100976.72;;;4.04;56.62
21803;BME280;18591;47.080;22.214;2023-02-16T01:37:58;100978.44;;;3.99;56.65
21803;BME280;18591;47.080;22.214;2023-02-16T01:40:00;100979.38;;;4.02;56.10
21803;BME280;18591;47.080;22.214;2023-02-16T01:42:34;100973.97;;;3.96;56.47
21803;BME280;18591;47.080;22.214;2023-02-16T01:45:00;100970.34;;;3.88;56.53
21803;BME280;18591;47.080;22.214;2023-02-16T01:49:16;100966.91;;;3.97;56.33
21803;BME280;18591;47.080;22.214;2023-02-16T01:51:23;100963.31;;;3.93;56.50
21803;BME280;18591;47.080;22.214;2023-02-16T01:55:44;100971.19;;;3.87;56.51
21803;BME280;18591;47.080;22.214;2023-02-16T02:01:15;100970.28;;;3.83;56.41
21803;BME280;18591;47.080;22.214;2023-02-16T02:02:59;100956.06;;;3.81;56.34
21803;BME280;18591;47.080;22.214;2023-02-16T02:05:26;100957.84;;;3.82;56.12
21803;BME280;18591;47.080;22.214;2023-02-16T02:07:49;100953.41;;;3.81;56.26
21803;BME280;18591;47.080;22.214;2023-02-16T02:10:13;100960.47;;;3.79;56.42
21803;BME280;18591;47.080;22.214;2023-02-16T02:12:39;100959.59;;;3.79;56.29
21803;BME280;18591;47.080;22.214;2023-02-16T02:14:44;100953.28;;;3.70;56.98
21803;BME280;18591;47.080;22.214;2023-02-16T02:16:58;100955.88;;;3.66;56.91
21803;BME280;18591;47.080;22.214;2023-02-16T02:19:04;100954.22;;;3.73;56.71
21803;BME280;18591;47.080;22.214;2023-02-16T02:21:34;100953.13;;;3.58;56.96
21803;BME280;18591;47.080;22.214;2023-02-16T02:26:44;100949.38;;;3.44;57.60
21803;BME280;18591;47.080;22.214;2023-02-16T02:29:18;100945.69;;;3.33;58.17
21803;BME280;18591;47.080;22.214;2023-02-16T02:33:57;100942.22;;;3.38;58.44
21803;BME280;18591;47.080;22.214;2023-02-16T02:41:31;100941.22;;;3.28;58.49
21803;BME280;18591;47.080;22.214;2023-02-16T02:44:01;100942.91;;;3.22;58.73
21803;BME280;18591;47.080;22.214;2023-02-16T02:46:26;100947.50;;;3.35;57.96
21803;BME280;18591;47.080;22.214;2023-02-16T02:48:32;100943.97;;;3.35;58.20
21803;BME280;18591;47.080;22.214;2023-02-16T02:50:45;100941.16;;;3.24;58.56
21803;BME280;18591;47.080;22.214;2023-02-16T02:53:12;100933.94;;;3.15;58.04
21803;BME280;18591;47.080;22.214;2023-02-16T02:55:15;100936.75;;;3.24;57.91
21803;BME280;18591;47.080;22.214;2023-02-16T02:57:40;100937.53;;;3.17;57.98
21803;BME280;18591;47.080;22.214;2023-02-16T03:00:12;100947.25;;;3.17;57.96
21803;BME280;18591;47.080;22.214;2023-02-16T03:02:37;100938.50;;;3.25;57.95
21803;BME280;18591;47.080;22.214;2023-02-16T03:04:44;100935.84;;;3.24;57.80
21803;BME280;18591;47.080;22.214;2023-02-16T03:06:49;100934.16;;;3.31;57.77
21803;BME280;18591;47.080;22.214;2023-02-16T03:09:10;100937.75;;;3.33;57.47
21803;BME280;18591;47.080;22.214;2023-02-16T03:11:20;100942.16;;;3.34;57.35
21803;BME280;18591;47.080;22.214;2023-02-16T03:13:45;100930.69;;;3.35;57.49
21803;BME280;18591;47.080;22.214;2023-02-16T03:15:49;100938.66;;;3.36;57.48
21803;BME280;18591;47.080;22.214;2023-02-16T03:18:00;100936.91;;;3.38;57.44
21803;BME280;18591;47.080;22.214;2023-02-16T03:20:23;100936.06;;;3.39;57.62
21803;BME280;18591;47.080;22.214;2023-02-16T03:22:43;100928.00;;;3.33;57.77
21803;BME280;18591;47.080;22.214;2023-02-16T03:25:05;100935.94;;;3.30;57.73
21803;BME280;18591;47.080;22.214;2023-02-16T03:27:31;100940.34;;;3.30;58.07
21803;BME280;18591;47.080;22.214;2023-02-16T03:29:54;100938.63;;;3.32;57.64
21803;BME280;18591;47.080;22.214;2023-02-16T03:31:57;100928.84;;;3.31;57.82
21803;BME280;18591;47.080;22.214;2023-02-16T03:34:00;100935.09;;;3.33;57.83
21803;BME280;18591;47.080;22.214;2023-02-16T03:36:04;100922.63;;;3.27;57.85
21803;BME280;18591;47.080;22.214;2023-02-16T03:38:06;100928.84;;;3.31;57.88
21803;BME280;18591;47.080;22.214;2023-02-16T03:40:12;100925.28;;;3.28;58.00
21803;BME280;18591;47.080;22.214;2023-02-16T03:42:30;100933.25;;;3.27;58.11
21803;BME280;18591;47.080;22.214;2023-02-16T03:44:32;100931.47;;;3.27;58.12
21803;BME280;18591;47.080;22.214;2023-02-16T03:46:35;100926.13;;;3.26;58.06
21803;BME280;18591;47.080;22.214;2023-02-16T03:48:37;100919.16;;;3.36;57.81
21803;BME280;18591;47.080;22.214;2023-02-16T03:50:39;100914.78;;;3.38;58.00
21803;BME280;18591;47.080;22.214;2023-02-16T03:52:41;100920.97;;;3.37;57.75
21803;BME280;18591;47.080;22.214;2023-02-16T03:54:43;100918.22;;;3.29;58.15
21803;BME280;18591;47.080;22.214;2023-02-16T03:56:47;100925.19;;;3.22;58.16
21803;BME280;18591;47.080;22.214;2023-02-16T03:58:49;100918.03;;;3.17;58.46
21803;BME280;18591;47.080;22.214;2023-02-16T04:00:52;100918.13;;;3.21;58.50
21803;BME280;18591;47.080;22.214;2023-02-16T04:02:55;100905.66;;;3.17;58.31
21803;BME280;18591;47.080;22.214;2023-02-16T04:04:57;100908.28;;;3.14;58.71
21803;BME280;18591;47.080;22.214;2023-02-16T04:06:59;100909.19;;;3.16;58.11
21803;BME280;18591;47.080;22.214;2023-02-16T04:09:02;100908.22;;;3.11;58.59
21803;BME280;18591;47.080;22.214;2023-02-16T04:11:04;100908.09;;;3.02;59.21
21803;BME280;18591;47.080;22.214;2023-02-16T04:13:25;100907.16;;;2.98;59.03
21803;BME280;18591;47.080;22.214;2023-02-16T04:15:29;100910.66;;;2.97;58.92
21803;BME280;18591;47.080;22.214;2023-02-16T04:17:31;100901.75;;;2.92;59.37
21803;BME280;18591;47.080;22.214;2023-02-16T04:19:33;100899.09;;;2.92;58.99
21803;BME280;18591;47.080;22.214;2023-02-16T04:21:35;100909.72;;;2.91;59.13
21803;BME280;18591;47.080;22.214;2023-02-16T04:23:38;100896.31;;;2.84;59.34
21803;BME280;18591;47.080;22.214;2023-02-16T04:25:40;100898.09;;;2.84;58.86
21803;BME280;18591;47.080;22.214;2023-02-16T04:27:42;100901.56;;;2.78;59.57
21803;BME280;18591;47.080;22.214;2023-02-16T04:29:44;100898.00;;;2.78;59.40
21803;BME280;18591;47.080;22.214;2023-02-16T04:31:47;100900.66;;;2.79;59.31
21803;BME280;18591;47.080;22.214;2023-02-16T04:33:50;100898.03;;;2.79;59.41
21803;BME280;18591;47.080;22.214;2023-02-16T04:35:53;100896.22;;;2.77;59.75
21803;BME280;18591;47.080;22.214;2023-02-16T04:37:58;100891.00;;;2.83;59.06
21803;BME280;18591;47.080;22.214;2023-02-16T04:40:01;100893.66;;;2.83;59.10
21803;BME280;18591;47.080;22.214;2023-02-16T04:42:04;100894.50;;;2.80;59.13
21803;BME280;18591;47.080;22.214;2023-02-16T04:44:06;100895.34;;;2.78;59.33
21803;BME280;18591;47.080;22.214;2023-02-16T04:46:09;100896.97;;;2.70;59.88
21803;BME280;18591;47.080;22.214;2023-02-16T04:48:11;100895.25;;;2.72;59.46
21803;BME280;18591;47.080;22.214;2023-02-16T04:50:13;100891.81;;;2.79;59.35
21803;BME280;18591;47.080;22.214;2023-02-16T04:52:16;100895.28;;;2.75;59.91
21803;BME280;18591;47.080;22.214;2023-02-16T04:54:18;100891.78;;;2.77;59.24
21803;BME280;18591;47.080;22.214;2023-02-16T04:56:20;100886.47;;;2.77;59.06
21803;BME280;18591;47.080;22.214;2023-02-16T04:58:22;100887.22;;;2.67;59.92
21803;BME280;18591;47.080;22.214;2023-02-16T05:00:24;100891.81;;;2.79;59.20
21803;BME280;18591;47.080;22.214;2023-02-16T05:02:26;100885.56;;;2.74;59.71
21803;BME280;18591;47.080;22.214;2023-02-16T05:04:29;100886.47;;;2.77;59.56
21803;BME280;18591;47.080;22.214;2023-02-16T05:06:31;100884.75;;;2.78;59.60
21803;BME280;18591;47.080;22.214;2023-02-16T05:08:34;100887.44;;;2.82;59.11
21803;BME280;18591;47.080;22.214;2023-02-16T05:10:36;100890.16;;;2.86;59.48
21803;BME280;18591;47.080;22.214;2023-02-16T05:12:38;100891.13;;;2.92;58.89
21803;BME280;18591;47.080;22.214;2023-02-16T05:14:58;100896.47;;;2.94;58.91
21803;BME280;18591;47.080;22.214;2023-02-16T05:17:00;100885.94;;;3.00;58.87
21803;BME280;18591;47.080;22.214;2023-02-16T05:19:02;100888.50;;;2.95;58.68
21803;BME280;18591;47.080;22.214;2023-02-16T05:21:04;100891.19;;;2.97;58.50
21803;BME280;18591;47.080;22.214;2023-02-16T05:23:25;100891.25;;;2.98;58.34
21803;BME280;18591;47.080;22.214;2023-02-16T05:25:27;100881.56;;;3.03;58.23
21803;BME280;18591;47.080;22.214;2023-02-16T05:27:30;100893.03;;;3.01;58.22
21803;BME280;18591;47.080;22.214;2023-02-16T05:29:32;100889.50;;;3.02;58.22
21803;BME280;18591;47.080;22.214;2023-02-16T05:31:35;100886.78;;;2.96;58.49
21803;BME280;18591;47.080;22.214;2023-02-16T05:33:37;100887.66;;;2.98;58.58
21803;BME280;18591;47.080;22.214;2023-02-16T05:35:39;100894.66;;;2.91;58.86
21803;BME280;18591;47.080;22.214;2023-02-16T05:37:41;100888.53;;;2.97;58.41
21803;BME280;18591;47.080;22.214;2023-02-16T05:39:43;100890.31;;;2.98;58.34
21803;BME280;18591;47.080;22.214;2023-02-16T05:41:46;100894.75;;;2.97;58.42
21803;BME280;18591;47.080;22.214;2023-02-16T05:43:53;100894.75;;;2.97;58.70
21803;BME280;18591;47.080;22.214;2023-02-16T05:45:55;100902.69;;;2.96;58.30
21803;BME280;18591;47.080;22.214;2023-02-16T05:47:57;100894.56;;;2.85;59.16
21803;BME280;18591;47.080;22.214;2023-02-16T05:49:59;100898.91;;;2.80;59.07
21803;BME280;18591;47.080;22.214;2023-02-16T05:52:02;100896.22;;;2.75;59.59
21803;BME280;18591;47.080;22.214;2023-02-16T05:54:05;100901.59;;;2.81;59.27
21803;BME280;18591;47.080;22.214;2023-02-16T05:56:08;100900.66;;;2.79;59.45
21803;BME280;18591;47.080;22.214;2023-02-16T05:58:10;100901.53;;;2.77;59.81
21803;BME280;18591;47.080;22.214;2023-02-16T06:00:12;100903.31;;;2.79;59.73
21803;BME280;18591;47.080;22.214;2023-02-16T06:02:14;100901.63;;;2.83;59.91
21803;BME280;18591;47.080;22.214;2023-02-16T06:04:19;100898.06;;;2.82;59.63
21803;BME280;18591;47.080;22.214;2023-02-16T06:06:22;100901.59;;;2.81;60.27
21803;BME280;18591;47.080;22.214;2023-02-16T06:08:24;100896.38;;;2.88;59.47
21803;BME280;18591;47.080;22.214;2023-02-16T06:10:27;100893.75;;;2.89;59.74
21803;BME280;18591;47.080;22.214;2023-02-16T06:12:29;100895.50;;;2.90;59.48
21803;BME280;18591;47.080;22.214;2023-02-16T06:14:33;100903.44;;;2.86;60.09
21803;BME280;18591;47.080;22.214;2023-02-16T06:16:37;100899.09;;;2.91;59.89
21803;BME280;18591;47.080;22.214;2023-02-16T06:18:39;100895.59;;;2.95;59.79
21803;BME280;18591;47.080;22.214;2023-02-16T06:20:44;100898.16;;;2.90;59.98
21803;BME280;18591;47.080;22.214;2023-02-16T06:22:46;100898.22;;;2.92;60.53
21803;BME280;18591;47.080;22.214;2023-02-16T06:24:49;100897.31;;;2.93;60.60
21803;BME280;18591;47.080;22.214;2023-02-16T06:26:51;100901.91;;;3.01;59.75
21803;BME280;18591;47.080;22.214;2023-02-16T06:28:54;100902.88;;;3.10;60.42
21803;BME280;18591;47.080;22.214;2023-02-16T06:30:56;100900.31;;;3.16;60.04
21803;BME280;18591;47.080;22.214;2023-02-16T06:32:59;100904.72;;;3.14;60.34
21803;BME280;18591;47.080;22.214;2023-02-16T06:35:01;100908.47;;;3.30;60.22
21803;BME280;18591;47.080;22.214;2023-02-16T06:37:05;100910.22;;;3.27;60.36
21803;BME280;18591;47.080;22.214;2023-02-16T06:39:07;100900.63;;;3.37;60.56
21803;BME280;18591;47.080;22.214;2023-02-16T06:41:09;100908.78;;;3.53;59.96
21803;BME280;18591;47.080;22.214;2023-02-16T06:43:12;100905.28;;;3.58;59.72
21803;BME280;18591;47.080;22.214;2023-02-16T06:45:14;100908.03;;;3.66;59.78
21803;BME280;18591;47.080;22.214;2023-02-16T06:47:16;100907.22;;;3.71;59.40
21803;BME280;18591;47.080;22.214;2023-02-16T06:49:19;100906.38;;;3.77;59.44
21803;BME280;18591;47.080;22.214;2023-02-16T06:51:22;100903.75;;;3.79;59.52
21803;BME280;18591;47.080;22.214;2023-02-16T06:53:24;100910.06;;;3.85;59.53
21803;BME280;18591;47.080;22.214;2023-02-16T06:55:26;100903.00;;;3.89;59.26
21803;BME280;18591;47.080;22.214;2023-02-16T06:57:29;100909.19;;;3.89;59.40
21803;BME280;18591;47.080;22.214;2023-02-16T06:59:31;100904.84;;;3.98;59.30
21803;BME280;18591;47.080;22.214;2023-02-16T07:01:33;100904.88;;;4.01;59.20
21803;BME280;18591;47.080;22.214;2023-02-16T07:03:36;100911.19;;;4.09;59.32
21803;BME280;18591;47.080;22.214;2023-02-16T07:05:41;100904.13;;;4.12;59.10
21803;BME280;18591;47.080;22.214;2023-02-16T07:07:45;100898.84;;;4.17;59.34
21803;BME280;18591;47.080;22.214;2023-02-16T07:09:47;100895.31;;;4.20;59.05
21803;BME280;18591;47.080;22.214;2023-02-16T07:11:49;100897.03;;;4.16;59.52
21803;BME280;18591;47.080;22.214;2023-02-16T07:13:51;100904.22;;;4.22;59.72
21803;BME280;18591;47.080;22.214;2023-02-16T07:15:53;100892.78;;;4.32;59.62
21803;BME280;18591;47.080;22.214;2023-02-16T07:17:56;100895.47;;;4.35;59.62
21803;BME280;18591;47.080;22.214;2023-02-16T07:20:00;100898.19;;;4.43;59.58
21803;BME280;18591;47.080;22.214;2023-02-16T07:22:03;100896.53;;;4.55;59.51
21803;BME280;18591;47.080;22.214;2023-02-16T07:24:06;100890.41;;;4.66;59.14
21803;BME280;18591;47.080;22.214;2023-02-16T07:26:08;100900.22;;;4.76;58.94
21803;BME280;18591;47.080;22.214;2023-02-16T07:28:10;100892.28;;;4.84;59.02
21803;BME280;18591;47.080;22.214;2023-02-16T07:30:13;100891.47;;;4.91;58.98
21803;BME280;18591;47.080;22.214;2023-02-16T07:32:17;100891.53;;;5.01;58.23
21803;BME280;18591;47.080;22.214;2023-02-16T07:34:19;100888.88;;;5.05;58.52
21803;BME280;18591;47.080;22.214;2023-02-16T07:36:22;100882.72;;;5.15;58.63
21803;BME280;18591;47.080;22.214;2023-02-16T07:38:25;100881.00;;;5.21;58.09
21803;BME280;18591;47.080;22.214;2023-02-16T07:40:27;100880.13;;;5.27;58.46
21803;BME280;18591;47.080;22.214;2023-02-16T07:42:30;100876.56;;;5.31;58.20
21803;BME280;18591;47.080;22.214;2023-02-16T07:44:37;100876.59;;;5.39;58.69
21803;BME280;18591;47.080;22.214;2023-02-16T07:46:39;100880.22;;;5.56;58.26
21803;BME280;18591;47.080;22.214;2023-02-16T07:48:41;100883.81;;;5.64;58.46
21803;BME280;18591;47.080;22.214;2023-02-16T07:50:43;100879.41;;;5.79;58.45
21803;BME280;18591;47.080;22.214;2023-02-16T07:52:45;100882.13;;;5.91;58.29
21803;BME280;18591;47.080;22.214;2023-02-16T07:54:47;100875.00;;;5.92;58.27
21803;BME280;18591;47.080;22.214;2023-02-16T07:56:50;100877.72;;;6.01;57.81
21803;BME280;18591;47.080;22.214;2023-02-16T07:58:53;100875.97;;;6.01;57.13
21803;BME280;18591;47.080;22.214;2023-02-16T08:01:04;100872.41;;;6.10;57.03
21803;BME280;18591;47.080;22.214;2023-02-16T08:03:07;100871.53;;;6.25;56.98
21803;BME280;18591;47.080;22.214;2023-02-16T08:05:10;100868.88;;;6.25;57.02
21803;BME280;18591;47.080;22.214;2023-02-16T08:07:16;100871.53;;;6.36;56.97
21803;BME280;18591;47.080;22.214;2023-02-16T08:09:18;100868.88;;;6.43;57.06
21803;BME280;18591;47.080;22.214;2023-02-16T08:11:23;100880.44;;;6.51;57.04
21803;BME280;18591;47.080;22.214;2023-02-16T08:13:28;100876.88;;;6.57;56.77
21803;BME280;18591;47.080;22.214;2023-02-16T08:15:30;100874.19;;;6.65;57.06
21803;BME280;18591;47.080;22.214;2023-02-16T08:17:33;100873.31;;;6.69;56.58
21803;BME280;18591;47.080;22.214;2023-02-16T08:19:35;100865.31;;;6.66;56.71
21803;BME280;18591;47.080;22.214;2023-02-16T08:21:38;100872.41;;;6.76;56.17
21803;BME280;18591;47.080;22.214;2023-02-16T08:23:45;100872.38;;;6.81;56.24
21803;BME280;18591;47.080;22.214;2023-02-16T08:25:50;100873.25;;;6.90;56.20
21803;BME280;18591;47.080;22.214;2023-02-16T08:27:52;100871.47;;;6.97;56.09
21803;BME280;18591;47.080;22.214;2023-02-16T08:29:55;100869.69;;;6.99;55.57
21803;BME280;18591;47.080;22.214;2023-02-16T08:31:58;100869.69;;;7.05;55.57
21803;BME280;18591;47.080;22.214;2023-02-16T08:34:01;100873.22;;;7.10;55.65
21803;BME280;18591;47.080;22.214;2023-02-16T08:36:08;100871.44;;;7.08;55.49
21803;BME280;18591;47.080;22.214;2023-02-16T08:38:17;100879.47;;;7.17;54.76
21803;BME280;18591;47.080;22.214;2023-02-16T08:40:19;100864.22;;;7.34;55.34
21803;BME280;18591;47.080;22.214;2023-02-16T08:42:26;100868.63;;;7.45;55.03
21803;BME280;18591;47.080;22.214;2023-02-16T08:44:28;100869.56;;;7.44;55.03
21803;BME280;18591;47.080;22.214;2023-02-16T08:46:31;100873.06;;;7.58;55.08
21803;BME280;18591;47.080;22.214;2023-02-16T08:48:39;100862.38;;;7.58;54.57
21803;BME280;18591;47.080;22.214;2023-02-16T08:50:44;100867.66;;;7.67;54.00
21803;BME280;18591;47.080;22.214;2023-02-16T08:52:56;100869.38;;;7.79;55.01
21803;BME280;18591;47.080;22.214;2023-02-16T08:54:59;100867.56;;;7.87;54.97
21803;BME280;18591;47.080;22.214;2023-02-16T08:57:01;100870.19;;;7.95;54.12
21803;BME280;18591;47.080;22.214;2023-02-16T08:59:03;100870.16;;;7.96;54.39
21803;BME280;18591;47.080;22.214;2023-02-16T09:01:07;100873.66;;;8.06;53.84
21803;BME280;18591;47.080;22.214;2023-02-16T09:03:09;100869.16;;;8.11;53.34
21803;BME280;18591;47.080;22.214;2023-02-16T09:05:11;100879.81;;;8.19;54.08
21803;BME280;18591;47.080;22.214;2023-02-16T09:07:14;100867.28;;;8.24;53.74
21803;BME280;18591;47.080;22.214;2023-02-16T09:09:17;100869.00;;;8.34;54.09
21803;BME280;18591;47.080;22.214;2023-02-16T09:11:20;100870.78;;;8.38;54.11
21803;BME280;18591;47.080;22.214;2023-02-16T09:13:22;100866.25;;;8.45;54.30
21803;BME280;18591;47.080;22.214;2023-02-16T09:15:24;100863.63;;;8.43;53.16
21803;BME280;18591;47.080;22.214;2023-02-16T09:17:27;100865.28;;;8.57;53.97
21803;BME280;18591;47.080;22.214;2023-02-16T09:19:32;100867.00;;;8.64;53.38
21803;BME280;18591;47.080;22.214;2023-02-16T09:21:35;100862.53;;;8.66;52.56
21803;BME280;18591;47.080;22.214;2023-02-16T09:23:39;100865.94;;;8.80;53.50
21803;BME280;18591;47.080;22.214;2023-02-16T09:25:45;100864.13;;;8.87;53.34
21803;BME280;18591;47.080;22.214;2023-02-16T09:27:47;100870.31;;;8.90;53.19
21803;BME280;18591;47.080;22.214;2023-02-16T09:29:50;100864.88;;;9.00;54.03
21803;BME280;18591;47.080;22.214;2023-02-16T09:31:53;100866.59;;;9.05;53.73
21803;BME280;18591;47.080;22.214;2023-02-16T09:34:01;100862.03;;;9.13;53.38
21803;BME280;18591;47.080;22.214;2023-02-16T09:36:05;100858.34;;;9.22;53.55
21803;BME280;18591;47.080;22.214;2023-02-16T09:38:08;100860.00;;;9.35;53.72
21803;BME280;18591;47.080;22.214;2023-02-16T09:40:12;100854.47;;;9.49;53.86
21803;BME280;18591;47.080;22.214;2023-02-16T09:42:53;100860.66;;;9.54;53.00
21803;BME280;18591;47.080;22.214;2023-02-16T09:45:04;100861.44;;;9.63;53.61
21803;BME280;18591;47.080;22.214;2023-02-16T09:47:18;100863.09;;;9.73;53.13
21803;BME280;18591;47.080;22.214;2023-02-16T09:53:37;100856.53;;;9.94;54.21
21803;BME280;18591;47.080;22.214;2023-02-16T09:55:51;100866.44;;;9.89;53.26
21803;BME280;18591;47.080;22.214;2023-02-16T09:58:22;100848.53;;;9.91;53.58
21803;BME280;18591;47.080;22.214;2023-02-16T10:02:47;100849.22;;;10.05;53.74
21803;BME280;18591;47.080;22.214;2023-02-16T10:07:30;100841.78;;;10.22;54.53
21803;BME280;18591;47.080;22.214;2023-02-16T10:09:34;100836.28;;;10.32;54.38
21803;BME280;18591;47.080;22.214;2023-02-16T10:11:48;100840.72;;;10.34;54.19
21803;BME280;18591;47.080;22.214;2023-02-16T10:13:55;100836.03;;;10.47;54.83
21803;BME280;18591;47.080;22.214;2023-02-16T10:15:58;100839.47;;;10.55;54.54
21803;BME280;18591;47.080;22.214;2023-02-16T10:18:13;100832.19;;;10.62;54.31
21803;BME280;18591;47.080;22.214;2023-02-16T10:20:29;100831.13;;;10.71;54.03
21803;BME280;18591;47.080;22.214;2023-02-16T10:23:02;100832.78;;;10.79;54.43
21803;BME280;18591;47.080;22.214;2023-02-16T10:27:20;100830.78;;;10.90;54.19
21803;BME280;18591;47.080;22.214;2023-02-16T10:29:25;100825.16;;;11.03;54.09
21803;BME280;18591;47.080;22.214;2023-02-16T10:31:35;100820.59;;;11.06;53.27
21803;BME280;18591;47.080;22.214;2023-02-16T10:33:45;100813.38;;;11.10;54.61
21803;BME280;18591;47.080;22.214;2023-02-16T10:35:51;100807.88;;;11.15;53.22
21803;BME280;18591;47.080;22.214;2023-02-16T10:40:26;100804.88;;;11.30;52.99
21803;BME280;18591;47.080;22.214;2023-02-16T10:42:47;100805.66;;;11.35;53.02
21803;BME280;18591;47.080;22.214;2023-02-16T10:47:02;100795.59;;;11.45;53.72
21803;BME280;18591;47.080;22.214;2023-02-16T10:49:14;100807.22;;;11.47;53.73
21803;BME280;18591;47.080;22.214;2023-02-16T10:51:17;100797.94;;;11.60;53.10
21803;BME280;18591;47.080;22.214;2023-02-16T10:53:44;100797.31;;;11.49;52.57
21803;BME280;18591;47.080;22.214;2023-02-16T10:55:48;100789.94;;;11.57;53.01
21803;BME280;18591;47.080;22.214;2023-02-16T10:57:57;100800.72;;;11.55;51.63
21803;BME280;18591;47.080;22.214;2023-02-16T11:00:03;100792.44;;;11.66;52.33
21803;BME280;18591;47.080;22.214;2023-02-16T11:02:33;100781.53;;;11.71;52.41
21803;BME280;18591;47.080;22.214;2023-02-16T11:04:43;100782.19;;;11.82;52.32
21803;BME280;18591;47.080;22.214;2023-02-16T11:07:03;100774.94;;;11.84;52.32
21803;BME280;18591;47.080;22.214;2023-02-16T11:09:08;100774.00;;;11.88;52.82
21803;BME280;18591;47.080;22.214;2023-02-16T11:11:16;100776.69;;;11.88;52.86
21803;BME280;18591;47.080;22.214;2023-02-16T11:13:28;100778.41;;;11.92;52.35
21803;BME280;18591;47.080;22.214;2023-02-16T11:15:34;100771.91;;;12.01;52.43
21803;BME280;18591;47.080;22.214;2023-02-16T11:17:57;100770.09;;;12.02;53.60
21803;BME280;18591;47.080;22.214;2023-02-16T11:20:05;100763.72;;;12.06;52.91
21803;BME280;18591;47.080;22.214;2023-02-16T11:22:24;100764.56;;;12.08;52.98
21803;BME280;18591;47.080;22.214;2023-02-16T11:24:31;100755.34;;;12.16;52.46
21803;BME280;18591;47.080;22.214;2023-02-16T11:26:34;100759.03;;;12.12;52.03
21803;BME280;18591;47.080;22.214;2023-02-16T11:28:43;100759.88;;;12.16;50.95
21803;BME280;18591;47.080;22.214;2023-02-16T11:30:46;100748.22;;;12.14;51.64
21803;BME280;18591;47.080;22.214;2023-02-16T11:32:50;100756.09;;;12.23;51.90
21803;BME280;18591;47.080;22.214;2023-02-16T11:34:52;100746.09;;;12.28;52.48